sensor_id;sensor_type;location;lat;lon;timestamp;P1;durP1;ratioP1;P2;durP2;ratioP2
3004;SDS011;1512;51.486;6.610;2022-10-16T00:00:26;5.80;;;3.60;;
3004;SDS011;1512;51.486;6.610;2022-10-16T00:04:36;4.37;;;3.67;;
3004;SDS011;1512;51.486;6.610;2022-10-16T00:08:44;4.93;;;4.43;;
3004;SDS011;1512;51.486;6.610;2022-10-16T00:12:53;3.60;;;3.30;;
3004;SDS011;1512;51.486;6.610;2022-10-16T00:17:01;6.03;;;3.77;;
3004;SDS011;1512;51.486;6.610;2022-10-16T00:21:12;6.60;;;3.63;;
3004;SDS011;1512;51.486;6.610;2022-10-16T00:25:22;4.93;;;4.27;;
3004;SDS011;1512;51.486;6.610;2022-10-16T00:29:30;4.10;;;3.80;;
3004;SDS011;1512;51.486;6.610;2022-10-16T00:33:40;5.00;;;3.70;;
3004;SDS011;1512;51.486;6.610;2022-10-16T00:37:49;4.07;;;3.20;;
3004;SDS011;1512;51.486;6.610;2022-10-16T00:41:57;4.07;;;3.60;;
3004;SDS011;1512;51.486;6.610;2022-10-16T00:46:13;3.57;;;3.27;;
3004;SDS011;1512;51.486;6.610;2022-10-16T00:50:30;4.43;;;2.97;;
3004;SDS011;1512;51.486;6.610;2022-10-16T00:54:40;6.57;;;3.97;;
3004;SDS011;1512;51.486;6.610;2022-10-16T00:58:49;8.10;;;3.53;;
3004;SDS011;1512;51.486;6.610;2022-10-16T01:02:59;3.10;;;2.80;;
3004;SDS011;1512;51.486;6.610;2022-10-16T01:07:11;3.67;;;3.33;;
3004;SDS011;1512;51.486;6.610;2022-10-16T01:11:27;6.70;;;3.73;;
3004;SDS011;1512;51.486;6.610;2022-10-16T01:15:59;4.67;;;3.10;;
3004;SDS011;1512;51.486;6.610;2022-10-16T01:20:10;7.33;;;3.07;;
3004;SDS011;1512;51.486;6.610;2022-10-16T01:24:28;4.17;;;3.53;;
3004;SDS011;1512;51.486;6.610;2022-10-16T01:33:10;5.30;;;3.50;;
3004;SDS011;1512;51.486;6.610;2022-10-16T01:37:35;2.77;;;2.57;;
3004;SDS011;1512;51.486;6.610;2022-10-16T01:41:48;4.07;;;3.63;;
3004;SDS011;1512;51.486;6.610;2022-10-16T01:45:58;4.60;;;3.00;;
3004;SDS011;1512;51.486;6.610;2022-10-16T01:50:08;6.67;;;3.50;;
3004;SDS011;1512;51.486;6.610;2022-10-16T01:54:17;5.53;;;3.23;;
3004;SDS011;1512;51.486;6.610;2022-10-16T01:58:28;3.93;;;3.63;;
3004;SDS011;1512;51.486;6.610;2022-10-16T02:02:40;4.03;;;2.60;;
3004;SDS011;1512;51.486;6.610;2022-10-16T02:06:51;3.63;;;3.20;;
3004;SDS011;1512;51.486;6.610;2022-10-16T02:11:00;5.00;;;2.70;;
3004;SDS011;1512;51.486;6.610;2022-10-16T02:15:11;3.77;;;3.47;;
3004;SDS011;1512;51.486;6.610;2022-10-16T02:19:19;6.30;;;3.13;;
3004;SDS011;1512;51.486;6.610;2022-10-16T02:28:06;8.03;;;3.00;;
3004;SDS011;1512;51.486;6.610;2022-10-16T02:32:17;3.73;;;2.83;;
3004;SDS011;1512;51.486;6.610;2022-10-16T02:40:56;4.40;;;2.90;;
3004;SDS011;1512;51.486;6.610;2022-10-16T02:45:06;3.17;;;2.60;;
3004;SDS011;1512;51.486;6.610;2022-10-16T02:49:15;3.70;;;2.93;;
3004;SDS011;1512;51.486;6.610;2022-10-16T02:53:25;2.80;;;2.60;;
3004;SDS011;1512;51.486;6.610;2022-10-16T02:57:33;3.10;;;2.80;;
3004;SDS011;1512;51.486;6.610;2022-10-16T03:01:43;2.50;;;2.30;;
3004;SDS011;1512;51.486;6.610;2022-10-16T03:05:52;3.23;;;2.77;;
3004;SDS011;1512;51.486;6.610;2022-10-16T03:10:01;6.30;;;3.00;;
3004;SDS011;1512;51.486;6.610;2022-10-16T03:14:10;3.23;;;2.50;;
3004;SDS011;1512;51.486;6.610;2022-10-16T03:18:18;3.03;;;2.73;;
3004;SDS011;1512;51.486;6.610;2022-10-16T03:22:27;2.53;;;2.33;;
3004;SDS011;1512;51.486;6.610;2022-10-16T03:26:36;2.90;;;2.57;;
3004;SDS011;1512;51.486;6.610;2022-10-16T03:30:44;3.90;;;2.67;;
3004;SDS011;1512;51.486;6.610;2022-10-16T03:34:53;3.27;;;2.50;;
3004;SDS011;1512;51.486;6.610;2022-10-16T03:39:03;3.13;;;2.40;;
3004;SDS011;1512;51.486;6.610;2022-10-16T03:43:12;3.00;;;2.17;;
3004;SDS011;1512;51.486;6.610;2022-10-16T03:47:21;2.57;;;2.20;;
3004;SDS011;1512;51.486;6.610;2022-10-16T03:51:31;2.53;;;2.33;;
3004;SDS011;1512;51.486;6.610;2022-10-16T03:55:43;2.83;;;2.60;;
3004;SDS011;1512;51.486;6.610;2022-10-16T03:59:52;2.57;;;2.37;;
3004;SDS011;1512;51.486;6.610;2022-10-16T04:04:00;2.47;;;2.27;;
3004;SDS011;1512;51.486;6.610;2022-10-16T04:08:09;2.97;;;2.50;;
3004;SDS011;1512;51.486;6.610;2022-10-16T04:12:18;3.27;;;2.50;;
3004;SDS011;1512;51.486;6.610;2022-10-16T04:16:26;2.50;;;2.20;;
3004;SDS011;1512;51.486;6.610;2022-10-16T04:20:41;2.30;;;2.10;;
3004;SDS011;1512;51.486;6.610;2022-10-16T04:24:49;2.90;;;2.60;;
3004;SDS011;1512;51.486;6.610;2022-10-16T04:28:58;2.50;;;2.10;;
3004;SDS011;1512;51.486;6.610;2022-10-16T04:33:08;2.20;;;2.00;;
3004;SDS011;1512;51.486;6.610;2022-10-16T04:37:17;3.20;;;2.87;;
3004;SDS011;1512;51.486;6.610;2022-10-16T04:41:25;4.13;;;2.17;;
3004;SDS011;1512;51.486;6.610;2022-10-16T04:45:34;3.17;;;2.10;;
3004;SDS011;1512;51.486;6.610;2022-10-16T04:49:43;3.03;;;2.60;;
3004;SDS011;1512;51.486;6.610;2022-10-16T04:53:51;2.40;;;2.20;;
3004;SDS011;1512;51.486;6.610;2022-10-16T04:58:00;3.10;;;2.33;;
3004;SDS011;1512;51.486;6.610;2022-10-16T05:02:08;2.53;;;2.33;;
3004;SDS011;1512;51.486;6.610;2022-10-16T05:10:45;2.23;;;2.03;;
3004;SDS011;1512;51.486;6.610;2022-10-16T05:14:54;4.30;;;2.37;;
3004;SDS011;1512;51.486;6.610;2022-10-16T05:19:04;2.10;;;2.00;;
3004;SDS011;1512;51.486;6.610;2022-10-16T05:27:35;2.47;;;2.27;;
3004;SDS011;1512;51.486;6.610;2022-10-16T05:31:43;4.07;;;2.50;;
3004;SDS011;1512;51.486;6.610;2022-10-16T05:35:52;2.63;;;2.43;;
3004;SDS011;1512;51.486;6.610;2022-10-16T05:40:01;3.40;;;2.80;;
3004;SDS011;1512;51.486;6.610;2022-10-16T05:44:11;2.50;;;2.30;;
3004;SDS011;1512;51.486;6.610;2022-10-16T05:48:20;2.40;;;2.10;;
3004;SDS011;1512;51.486;6.610;2022-10-16T05:52:29;2.37;;;2.17;;
3004;SDS011;1512;51.486;6.610;2022-10-16T05:56:37;2.70;;;2.50;;
3004;SDS011;1512;51.486;6.610;2022-10-16T06:01:32;2.10;;;1.90;;
3004;SDS011;1512;51.486;6.610;2022-10-16T06:09:31;2.67;;;2.47;;
3004;SDS011;1512;51.486;6.610;2022-10-16T06:13:39;2.73;;;2.53;;
3004;SDS011;1512;51.486;6.610;2022-10-16T06:17:49;4.17;;;2.73;;
3004;SDS011;1512;51.486;6.610;2022-10-16T06:21:57;2.80;;;2.50;;
3004;SDS011;1512;51.486;6.610;2022-10-16T06:26:08;3.87;;;2.83;;
3004;SDS011;1512;51.486;6.610;2022-10-16T06:34:46;3.20;;;2.57;;
3004;SDS011;1512;51.486;6.610;2022-10-16T06:38:54;2.93;;;2.60;;
3004;SDS011;1512;51.486;6.610;2022-10-16T06:43:03;3.37;;;2.67;;
3004;SDS011;1512;51.486;6.610;2022-10-16T06:47:11;2.97;;;2.70;;
3004;SDS011;1512;51.486;6.610;2022-10-16T06:51:21;3.33;;;2.90;;
3004;SDS011;1512;51.486;6.610;2022-10-16T06:55:30;3.87;;;3.20;;
3004;SDS011;1512;51.486;6.610;2022-10-16T06:59:39;3.40;;;2.55;;
3004;SDS011;1512;51.486;6.610;2022-10-16T07:03:49;3.57;;;3.03;;
3004;SDS011;1512;51.486;6.610;2022-10-16T07:07:58;3.50;;;2.50;;
3004;SDS011;1512;51.486;6.610;2022-10-16T07:12:07;3.90;;;3.43;;
3004;SDS011;1512;51.486;6.610;2022-10-16T07:16:19;3.35;;;3.05;;
3004;SDS011;1512;51.486;6.610;2022-10-16T07:20:29;2.70;;;2.50;;
3004;SDS011;1512;51.486;6.610;2022-10-16T07:24:38;4.17;;;3.00;;
3004;SDS011;1512;51.486;6.610;2022-10-16T07:28:46;3.00;;;2.77;;
3004;SDS011;1512;51.486;6.610;2022-10-16T07:32:55;3.17;;;2.80;;
3004;SDS011;1512;51.486;6.610;2022-10-16T07:37:04;3.30;;;2.70;;
3004;SDS011;1512;51.486;6.610;2022-10-16T07:41:17;3.40;;;3.10;;
3004;SDS011;1512;51.486;6.610;2022-10-16T07:45:24;5.17;;;3.30;;
3004;SDS011;1512;51.486;6.610;2022-10-16T07:49:33;2.97;;;2.77;;
3004;SDS011;1512;51.486;6.610;2022-10-16T07:53:41;5.50;;;3.43;;
3004;SDS011;1512;51.486;6.610;2022-10-16T07:57:50;7.93;;;3.03;;
3004;SDS011;1512;51.486;6.610;2022-10-16T08:01:58;2.90;;;2.53;;
3004;SDS011;1512;51.486;6.610;2022-10-16T08:06:07;3.33;;;3.03;;
3004;SDS011;1512;51.486;6.610;2022-10-16T08:10:17;3.43;;;3.13;;
3004;SDS011;1512;51.486;6.610;2022-10-16T08:14:27;3.50;;;2.90;;
3004;SDS011;1512;51.486;6.610;2022-10-16T08:18:36;3.83;;;3.50;;
3004;SDS011;1512;51.486;6.610;2022-10-16T08:22:46;3.90;;;3.60;;
3004;SDS011;1512;51.486;6.610;2022-10-16T08:26:55;4.20;;;2.33;;
3004;SDS011;1512;51.486;6.610;2022-10-16T08:31:07;5.07;;;2.87;;
3004;SDS011;1512;51.486;6.610;2022-10-16T08:35:17;3.70;;;3.40;;
3004;SDS011;1512;51.486;6.610;2022-10-16T08:39:26;2.70;;;2.50;;
3004;SDS011;1512;51.486;6.610;2022-10-16T08:43:39;2.77;;;2.57;;
3004;SDS011;1512;51.486;6.610;2022-10-16T08:48:08;5.23;;;2.67;;
3004;SDS011;1512;51.486;6.610;2022-10-16T08:56:39;2.97;;;2.63;;
3004;SDS011;1512;51.486;6.610;2022-10-16T09:00:49;7.00;;;3.17;;
3004;SDS011;1512;51.486;6.610;2022-10-16T09:05:02;4.83;;;2.33;;
3004;SDS011;1512;51.486;6.610;2022-10-16T09:13:48;2.97;;;2.57;;
3004;SDS011;1512;51.486;6.610;2022-10-16T09:18:00;4.47;;;2.80;;
3004;SDS011;1512;51.486;6.610;2022-10-16T09:22:16;2.73;;;2.50;;
3004;SDS011;1512;51.486;6.610;2022-10-16T09:26:26;8.00;;;3.10;;
3004;SDS011;1512;51.486;6.610;2022-10-16T09:30:34;2.87;;;2.60;;
3004;SDS011;1512;51.486;6.610;2022-10-16T09:34:47;2.40;;;2.17;;
3004;SDS011;1512;51.486;6.610;2022-10-16T09:39:03;2.60;;;2.13;;
3004;SDS011;1512;51.486;6.610;2022-10-16T09:47:31;2.20;;;2.00;;
3004;SDS011;1512;51.486;6.610;2022-10-16T09:51:41;3.53;;;2.87;;
3004;SDS011;1512;51.486;6.610;2022-10-16T09:55:51;3.17;;;2.10;;
3004;SDS011;1512;51.486;6.610;2022-10-16T10:00:04;2.80;;;2.60;;
3004;SDS011;1512;51.486;6.610;2022-10-16T10:04:13;3.10;;;2.47;;
3004;SDS011;1512;51.486;6.610;2022-10-16T10:08:22;2.27;;;2.07;;
3004;SDS011;1512;51.486;6.610;2022-10-16T10:12:32;3.37;;;2.00;;
3004;SDS011;1512;51.486;6.610;2022-10-16T10:16:43;3.60;;;2.00;;
3004;SDS011;1512;51.486;6.610;2022-10-16T10:20:59;4.90;;;2.10;;
3004;SDS011;1512;51.486;6.610;2022-10-16T10:29:37;3.03;;;2.20;;
3004;SDS011;1512;51.486;6.610;2022-10-16T10:43:09;4.33;;;2.60;;
3004;SDS011;1512;51.486;6.610;2022-10-16T10:51:49;2.87;;;2.07;;
3004;SDS011;1512;51.486;6.610;2022-10-16T11:05:13;2.75;;;2.00;;
3004;SDS011;1512;51.486;6.610;2022-10-16T11:09:38;2.50;;;2.27;;
3004;SDS011;1512;51.486;6.610;2022-10-16T11:18:21;4.20;;;2.40;;
3004;SDS011;1512;51.486;6.610;2022-10-16T11:22:40;2.93;;;2.27;;
3004;SDS011;1512;51.486;6.610;2022-10-16T11:26:53;4.53;;;2.53;;
3004;SDS011;1512;51.486;6.610;2022-10-16T11:31:18;2.83;;;2.10;;
3004;SDS011;1512;51.486;6.610;2022-10-16T11:39:58;3.90;;;2.60;;
3004;SDS011;1512;51.486;6.610;2022-10-16T11:48:55;3.33;;;2.17;;
3004;SDS011;1512;51.486;6.610;2022-10-16T11:58:18;3.83;;;2.33;;
3004;SDS011;1512;51.486;6.610;2022-10-16T12:06:48;2.30;;;2.10;;
3004;SDS011;1512;51.486;6.610;2022-10-16T12:15:37;1.80;;;1.60;;
3004;SDS011;1512;51.486;6.610;2022-10-16T12:28:48;2.40;;;2.10;;
3004;SDS011;1512;51.486;6.610;2022-10-16T12:33:03;3.03;;;2.07;;
3004;SDS011;1512;51.486;6.610;2022-10-16T12:37:31;3.87;;;2.07;;
3004;SDS011;1512;51.486;6.610;2022-10-16T12:41:41;2.87;;;2.30;;
3004;SDS011;1512;51.486;6.610;2022-10-16T12:45:59;4.13;;;1.90;;
3004;SDS011;1512;51.486;6.610;2022-10-16T12:50:24;2.37;;;2.10;;
3004;SDS011;1512;51.486;6.610;2022-10-16T12:54:35;2.60;;;2.10;;
3004;SDS011;1512;51.486;6.610;2022-10-16T12:58:53;2.00;;;1.80;;
3004;SDS011;1512;51.486;6.610;2022-10-16T13:07:43;3.53;;;2.30;;
3004;SDS011;1512;51.486;6.610;2022-10-16T13:21:19;4.03;;;2.50;;
3004;SDS011;1512;51.486;6.610;2022-10-16T13:30:27;3.13;;;2.10;;
3004;SDS011;1512;51.486;6.610;2022-10-16T13:34:45;2.33;;;2.10;;
3004;SDS011;1512;51.486;6.610;2022-10-16T13:39:09;3.03;;;2.53;;
3004;SDS011;1512;51.486;6.610;2022-10-16T13:43:22;2.77;;;2.53;;
3004;SDS011;1512;51.486;6.610;2022-10-16T13:47:28;3.40;;;2.53;;
3004;SDS011;1512;51.486;6.610;2022-10-16T13:51:37;1.90;;;1.80;;
3004;SDS011;1512;51.486;6.610;2022-10-16T13:55:46;3.40;;;1.90;;
3004;SDS011;1512;51.486;6.610;2022-10-16T13:59:55;2.00;;;1.90;;
3004;SDS011;1512;51.486;6.610;2022-10-16T14:04:07;2.40;;;2.20;;
3004;SDS011;1512;51.486;6.610;2022-10-16T14:08:17;5.03;;;2.40;;
3004;SDS011;1512;51.486;6.610;2022-10-16T14:12:27;2.20;;;2.00;;
3004;SDS011;1512;51.486;6.610;2022-10-16T14:16:36;2.83;;;2.00;;
3004;SDS011;1512;51.486;6.610;2022-10-16T14:20:48;1.73;;;1.63;;
3004;SDS011;1512;51.486;6.610;2022-10-16T14:24:58;3.07;;;2.20;;
3004;SDS011;1512;51.486;6.610;2022-10-16T14:33:37;1.97;;;1.87;;
3004;SDS011;1512;51.486;6.610;2022-10-16T14:37:46;3.70;;;2.10;;
3004;SDS011;1512;51.486;6.610;2022-10-16T14:41:56;2.33;;;2.13;;
3004;SDS011;1512;51.486;6.610;2022-10-16T14:46:08;1.60;;;1.50;;
3004;SDS011;1512;51.486;6.610;2022-10-16T14:50:27;2.13;;;1.93;;
3004;SDS011;1512;51.486;6.610;2022-10-16T14:59:04;2.40;;;2.00;;
3004;SDS011;1512;51.486;6.610;2022-10-16T15:03:13;3.93;;;2.10;;
3004;SDS011;1512;51.486;6.610;2022-10-16T15:07:22;2.67;;;2.47;;
3004;SDS011;1512;51.486;6.610;2022-10-16T15:11:31;2.63;;;2.00;;
3004;SDS011;1512;51.486;6.610;2022-10-16T15:15:44;2.77;;;2.20;;
3004;SDS011;1512;51.486;6.610;2022-10-16T15:19:55;2.53;;;2.30;;
3004;SDS011;1512;51.486;6.610;2022-10-16T15:24:08;2.73;;;2.10;;
3004;SDS011;1512;51.486;6.610;2022-10-16T15:28:17;2.80;;;2.17;;
3004;SDS011;1512;51.486;6.610;2022-10-16T15:32:28;2.50;;;2.30;;
3004;SDS011;1512;51.486;6.610;2022-10-16T15:36:37;2.37;;;2.17;;
3004;SDS011;1512;51.486;6.610;2022-10-16T15:40:47;3.17;;;2.27;;
3004;SDS011;1512;51.486;6.610;2022-10-16T15:44:56;3.10;;;2.27;;
3004;SDS011;1512;51.486;6.610;2022-10-16T15:49:04;2.73;;;2.30;;
3004;SDS011;1512;51.486;6.610;2022-10-16T15:53:13;2.70;;;2.50;;
3004;SDS011;1512;51.486;6.610;2022-10-16T15:57:22;3.50;;;2.35;;
3004;SDS011;1512;51.486;6.610;2022-10-16T16:01:34;3.50;;;2.57;;
3004;SDS011;1512;51.486;6.610;2022-10-16T16:05:43;3.10;;;2.50;;
3004;SDS011;1512;51.486;6.610;2022-10-16T16:09:52;2.22;;;2.02;;
3004;SDS011;1512;51.486;6.610;2022-10-16T16:14:01;6.30;;;3.03;;
3004;SDS011;1512;51.486;6.610;2022-10-16T16:18:10;5.80;;;2.13;;
3004;SDS011;1512;51.486;6.610;2022-10-16T16:22:18;2.60;;;2.20;;
3004;SDS011;1512;51.486;6.610;2022-10-16T16:26:27;2.40;;;2.20;;
3004;SDS011;1512;51.486;6.610;2022-10-16T16:35:10;5.20;;;2.87;;
3004;SDS011;1512;51.486;6.610;2022-10-16T16:39:18;6.70;;;3.03;;
3004;SDS011;1512;51.486;6.610;2022-10-16T16:43:27;2.70;;;2.50;;
3004;SDS011;1512;51.486;6.610;2022-10-16T16:47:36;3.27;;;2.97;;
3004;SDS011;1512;51.486;6.610;2022-10-16T16:51:45;2.87;;;2.67;;
3004;SDS011;1512;51.486;6.610;2022-10-16T16:55:54;3.43;;;2.53;;
3004;SDS011;1512;51.486;6.610;2022-10-16T17:00:04;3.00;;;2.70;;
3004;SDS011;1512;51.486;6.610;2022-10-16T17:04:13;3.60;;;2.80;;
3004;SDS011;1512;51.486;6.610;2022-10-16T17:08:22;3.50;;;2.20;;
3004;SDS011;1512;51.486;6.610;2022-10-16T17:12:31;13.33;;;3.63;;
3004;SDS011;1512;51.486;6.610;2022-10-16T17:16:39;2.50;;;2.30;;
3004;SDS011;1512;51.486;6.610;2022-10-16T17:20:52;2.90;;;2.60;;
3004;SDS011;1512;51.486;6.610;2022-10-16T17:25:00;4.17;;;3.37;;
3004;SDS011;1512;51.486;6.610;2022-10-16T17:29:10;5.50;;;3.03;;
3004;SDS011;1512;51.486;6.610;2022-10-16T17:33:43;2.83;;;2.63;;
3004;SDS011;1512;51.486;6.610;2022-10-16T17:42:36;4.37;;;3.97;;
3004;SDS011;1512;51.486;6.610;2022-10-16T17:47:00;5.47;;;4.00;;
3004;SDS011;1512;51.486;6.610;2022-10-16T17:51:47;5.17;;;3.70;;
3004;SDS011;1512;51.486;6.610;2022-10-16T17:56:01;5.50;;;3.33;;
3004;SDS011;1512;51.486;6.610;2022-10-16T18:00:26;5.10;;;4.30;;
3004;SDS011;1512;51.486;6.610;2022-10-16T18:04:45;7.10;;;3.97;;
3004;SDS011;1512;51.486;6.610;2022-10-16T18:13:54;4.90;;;3.73;;
3004;SDS011;1512;51.486;6.610;2022-10-16T18:18:14;4.50;;;4.03;;
3004;SDS011;1512;51.486;6.610;2022-10-16T18:27:32;13.43;;;3.70;;
3004;SDS011;1512;51.486;6.610;2022-10-16T18:36:26;4.70;;;3.73;;
3004;SDS011;1512;51.486;6.610;2022-10-16T18:41:04;8.03;;;3.20;;
3004;SDS011;1512;51.486;6.610;2022-10-16T18:45:19;4.93;;;4.10;;
3004;SDS011;1512;51.486;6.610;2022-10-16T18:49:31;5.50;;;3.60;;
3004;SDS011;1512;51.486;6.610;2022-10-16T18:53:50;4.43;;;3.50;;
3004;SDS011;1512;51.486;6.610;2022-10-16T18:58:05;4.40;;;3.63;;
3004;SDS011;1512;51.486;6.610;2022-10-16T19:02:17;4.60;;;3.47;;
3004;SDS011;1512;51.486;6.610;2022-10-16T19:06:34;4.70;;;4.30;;
3004;SDS011;1512;51.486;6.610;2022-10-16T19:10:42;4.23;;;3.83;;
3004;SDS011;1512;51.486;6.610;2022-10-16T19:15:02;4.07;;;3.67;;
3004;SDS011;1512;51.486;6.610;2022-10-16T19:19:21;6.50;;;4.20;;
3004;SDS011;1512;51.486;6.610;2022-10-16T19:23:45;5.00;;;4.00;;
3004;SDS011;1512;51.486;6.610;2022-10-16T19:27:53;10.10;;;5.83;;
3004;SDS011;1512;51.486;6.610;2022-10-16T19:32:03;6.30;;;4.27;;
3004;SDS011;1512;51.486;6.610;2022-10-16T19:36:35;5.80;;;4.07;;
3004;SDS011;1512;51.486;6.610;2022-10-16T19:41:03;4.37;;;3.97;;
3004;SDS011;1512;51.486;6.610;2022-10-16T19:50:20;5.40;;;4.83;;
3004;SDS011;1512;51.486;6.610;2022-10-16T19:54:46;5.80;;;4.00;;
3004;SDS011;1512;51.486;6.610;2022-10-16T19:59:23;5.33;;;4.50;;
3004;SDS011;1512;51.486;6.610;2022-10-16T20:03:35;5.40;;;4.80;;
3004;SDS011;1512;51.486;6.610;2022-10-16T20:17:15;9.67;;;6.37;;
3004;SDS011;1512;51.486;6.610;2022-10-16T20:25:52;6.50;;;5.07;;
3004;SDS011;1512;51.486;6.610;2022-10-16T20:30:06;6.07;;;5.20;;
3004;SDS011;1512;51.486;6.610;2022-10-16T20:34:30;7.22;;;4.67;;
3004;SDS011;1512;51.486;6.610;2022-10-16T20:43:27;6.07;;;5.30;;
3004;SDS011;1512;51.486;6.610;2022-10-16T20:47:43;7.30;;;5.30;;
3004;SDS011;1512;51.486;6.610;2022-10-16T20:52:03;6.70;;;5.43;;
3004;SDS011;1512;51.486;6.610;2022-10-16T20:56:13;8.60;;;5.20;;
3004;SDS011;1512;51.486;6.610;2022-10-16T21:05:08;7.07;;;4.50;;
3004;SDS011;1512;51.486;6.610;2022-10-16T21:09:59;4.53;;;4.13;;
3004;SDS011;1512;51.486;6.610;2022-10-16T21:14:07;5.80;;;4.33;;
3004;SDS011;1512;51.486;6.610;2022-10-16T21:18:26;5.90;;;5.40;;
3004;SDS011;1512;51.486;6.610;2022-10-16T21:27:41;8.33;;;5.20;;
3004;SDS011;1512;51.486;6.610;2022-10-16T21:31:56;4.90;;;4.40;;
3004;SDS011;1512;51.486;6.610;2022-10-16T21:36:42;6.73;;;6.13;;
3004;SDS011;1512;51.486;6.610;2022-10-16T21:40:55;7.30;;;5.10;;
3004;SDS011;1512;51.486;6.610;2022-10-16T21:45:23;5.10;;;4.70;;
3004;SDS011;1512;51.486;6.610;2022-10-16T21:49:34;4.57;;;4.13;;
3004;SDS011;1512;51.486;6.610;2022-10-16T21:53:43;5.50;;;5.00;;
3004;SDS011;1512;51.486;6.610;2022-10-16T21:57:56;7.37;;;5.10;;
3004;SDS011;1512;51.486;6.610;2022-10-16T22:02:05;7.53;;;4.90;;
3004;SDS011;1512;51.486;6.610;2022-10-16T22:06:21;4.37;;;3.97;;
3004;SDS011;1512;51.486;6.610;2022-10-16T22:10:34;5.40;;;4.93;;
3004;SDS011;1512;51.486;6.610;2022-10-16T22:14:48;6.93;;;4.90;;
3004;SDS011;1512;51.486;6.610;2022-10-16T22:18:58;4.53;;;3.90;;
3004;SDS011;1512;51.486;6.610;2022-10-16T22:27:42;6.17;;;4.90;;
3004;SDS011;1512;51.486;6.610;2022-10-16T22:31:52;4.37;;;3.97;;
3004;SDS011;1512;51.486;6.610;2022-10-16T22:36:09;5.77;;;5.17;;
3004;SDS011;1512;51.486;6.610;2022-10-16T22:40:23;5.40;;;4.90;;
3004;SDS011;1512;51.486;6.610;2022-10-16T22:44:50;5.13;;;4.63;;
3004;SDS011;1512;51.486;6.610;2022-10-16T22:48:57;4.30;;;3.37;;
3004;SDS011;1512;51.486;6.610;2022-10-16T22:53:08;3.87;;;3.57;;
3004;SDS011;1512;51.486;6.610;2022-10-16T22:57:29;4.40;;;3.67;;
3004;SDS011;1512;51.486;6.610;2022-10-16T23:01:37;7.20;;;4.63;;
3004;SDS011;1512;51.486;6.610;2022-10-16T23:05:54;5.63;;;3.27;;
3004;SDS011;1512;51.486;6.610;2022-10-16T23:10:04;4.30;;;3.50;;
3004;SDS011;1512;51.486;6.610;2022-10-16T23:14:36;3.73;;;3.43;;
3004;SDS011;1512;51.486;6.610;2022-10-16T23:18:47;3.67;;;3.27;;
3004;SDS011;1512;51.486;6.610;2022-10-16T23:23:01;3.83;;;3.50;;
3004;SDS011;1512;51.486;6.610;2022-10-16T23:27:15;4.40;;;3.87;;
3004;SDS011;1512;51.486;6.610;2022-10-16T23:31:34;4.28;;;3.85;;
3004;SDS011;1512;51.486;6.610;2022-10-16T23:35:55;6.20;;;4.67;;
3004;SDS011;1512;51.486;6.610;2022-10-16T23:40:25;5.93;;;4.50;;
3004;SDS011;1512;51.486;6.610;2022-10-16T23:44:39;5.40;;;4.10;;
3004;SDS011;1512;51.486;6.610;2022-10-16T23:49:03;6.07;;;5.10;;
3004;SDS011;1512;51.486;6.610;2022-10-16T23:53:17;5.07;;;4.57;;
3004;SDS011;1512;51.486;6.610;2022-10-16T23:57:28;9.13;;;4.90;;
